Time;durP1;ratioP1;P1;durP2;ratioP2;P2;SDS_P1;SDS_P2;PMS_P1;PMS_P2;Temp;Humidity;BMP_temperature;BMP_pressure;BME280_temperature;BME280_humidity;BME280_pressure;Samples;Min_cycle;Max_cycle;Signal;HPM_P1;HPM_P2
2022/10/13 00:01:39;;;;;;;;;;;;;;;26.68;32.50;101531.91;5061046;28;1148;-35
2022/10/13 00:04:05;;;;;;;;;;;;;;;26.42;31.99;101530.97;5038979;28;1220;-35
2022/10/13 00:06:31;;;;;;;;;;;;;;;26.42;31.42;101533.66;5065112;28;1183;-36
2022/10/13 00:08:57;;;;;;;;;;;;;;;26.63;31.60;101527.00;5076617;28;1175;-35
2022/10/13 00:11:23;;;;;;;;;;;;;;;26.66;31.79;101532.09;5076675;28;1187;-36
2022/10/13 00:13:48;;;;;;;;;;;;;;;26.60;32.39;101533.59;5023738;28;1205;-35
2022/10/13 00:16:14;;;;;;;;;;;;;;;26.60;32.27;101525.50;5036683;28;1961;-36
2022/10/13 00:18:40;;;;;;;;;;;;;;;26.51;32.77;101535.38;5036907;28;1243;-36
2022/10/13 00:21:06;;;;;;;;;;;;;;;26.47;32.37;101525.94;5036971;28;1124;-36
2022/10/13 00:23:32;;;;;;;;;;;;;;;26.55;32.58;101530.53;5036503;28;1273;-36
2022/10/13 00:25:57;;;;;;;;;;;;;;;26.55;32.76;101527.81;5037034;28;1152;-36
2022/10/13 00:28:22;;;;;;;;;;;;;;;26.56;32.70;101523.28;5036429;28;1163;-35
2022/10/13 00:30:48;;;;;;;;;;;;;;;26.48;32.80;101521.38;5036609;28;1220;-35
2022/10/13 00:33:13;;;;;;;;;;;;;;;26.53;32.67;101529.81;5036704;28;1183;-35
2022/10/13 00:35:39;;;;;;;;;;;;;;;26.61;32.40;101531.75;5036258;28;1895;-35
2022/10/13 00:38:04;;;;;;;;;;;;;;;26.54;32.83;101523.44;5036713;28;1203;-36
2022/10/13 00:40:29;;;;;;;;;;;;;;;26.50;32.66;101522.06;5045718;28;1208;-35
2022/10/13 00:42:55;;;;;;;;;;;;;;;26.39;32.60;101520.50;5046532;28;1147;-34
2022/10/13 00:45:21;;;;;;;;;;;;;;;26.42;32.66;101525.56;5036544;28;1168;-35
2022/10/13 00:47:47;;;;;;;;;;;;;;;26.43;32.93;101524.53;5055079;28;1246;-35
2022/10/13 00:50:21;;;;;;;;;;;;;;;26.49;32.61;101528.47;5025129;28;1223;-34
2022/10/13 00:52:46;;;;;;;;;;;;;;;26.39;32.99;101520.50;5044356;28;1036;-35
2022/10/13 00:55:12;;;;;;;;;;;;;;;26.47;32.52;101512.44;5047018;28;1192;-36
2022/10/13 00:57:37;;;;;;;;;;;;;;;26.46;32.74;101512.59;5028105;28;1902;-36
2022/10/13 01:00:03;;;;;;;;;;;;;;;26.49;32.87;101513.09;5036672;28;1200;-36
2022/10/13 01:02:30;;;;;;;;;;;;;;;26.49;32.58;101518.50;5036273;28;1176;-36
2022/10/13 01:04:56;;;;;;;;;;;;;;;26.43;32.98;101513.75;5036072;28;1160;-36
2022/10/13 01:07:22;;;;;;;;;;;;;;;26.48;32.69;101519.53;5036148;28;904;-36
2022/10/13 01:09:47;;;;;;;;;;;;;;;26.45;32.57;101519.84;5036161;28;1198;-36
2022/10/13 01:12:25;;;;;;;;;;;;;;;26.52;32.95;101523.59;5041865;28;1396;-36
2022/10/13 01:15:08;;;;;;;;;;;;;;;26.51;32.80;101518.34;5060116;28;1226;-36
2022/10/13 01:17:49;;;;;;;;;;;;;;;26.39;32.75;101521.31;5060261;28;1981;-36
2022/10/13 01:20:19;;;;;;;;;;;;;;;26.41;33.12;101515.75;5059889;28;993;-35
2022/10/13 01:22:47;;;;;;;;;;;;;;;26.44;33.17;101514.59;5042430;28;1101;-36
2022/10/13 01:25:25;;;;;;;;;;;;;;;26.37;32.95;101511.69;5060025;28;1218;-36
2022/10/13 01:27:54;;;;;;;;;;;;;;;26.38;33.24;101510.69;5042078;28;1195;-36
2022/10/13 01:30:20;;;;;;;;;;;;;;;26.34;33.08;101506.63;5041736;28;1219;-36
2022/10/13 01:33:07;;;;;;;;;;;;;;;26.40;32.90;101519.47;5042190;28;1176;-36
2022/10/13 01:35:36;;;;;;;;;;;;;;;26.38;33.04;101516.94;5059299;28;1898;-36
2022/10/13 01:38:08;;;;;;;;;;;;;;;26.36;33.19;101513.53;5042433;28;1251;-36
2022/10/13 01:40:48;;;;;;;;;;;;;;;26.39;33.19;101507.81;5059559;28;1128;-35
2022/10/13 01:43:19;;;;;;;;;;;;;;;26.28;33.45;101505.38;5059653;28;1143;-35
2022/10/13 01:45:53;;;;;;;;;;;;;;;26.28;33.16;101505.38;5043866;28;1136;-35
2022/10/13 01:48:18;;;;;;;;;;;;;;;26.31;33.17;101506.91;5058086;28;1183;-35
2022/10/13 01:50:44;;;;;;;;;;;;;;;26.37;32.92;101506.31;5041739;28;1306;-35
2022/10/13 01:53:09;;;;;;;;;;;;;;;26.37;33.16;101500.91;5041899;28;1132;-35
2022/10/13 01:55:34;;;;;;;;;;;;;;;26.41;33.26;101508.53;5059090;28;1902;-35
2022/10/13 01:58:00;;;;;;;;;;;;;;;26.44;32.91;101499.28;5059509;28;1242;-35
2022/10/13 02:00:25;;;;;;;;;;;;;;;26.36;33.09;101507.31;5059642;28;1211;-35
2022/10/13 02:02:59;;;;;;;;;;;;;;;26.37;33.26;101509.00;5041695;28;1188;-35
2022/10/13 02:05:48;;;;;;;;;;;;;;;26.41;32.88;101510.38;5058856;28;1167;-35
2022/10/13 02:08:13;;;;;;;;;;;;;;;26.34;33.71;101509.31;5041650;28;886;-35
2022/10/13 02:10:38;;;;;;;;;;;;;;;26.33;33.21;101511.16;5058848;28;1164;-36
2022/10/13 02:13:04;;;;;;;;;;;;;;;26.28;33.27;101514.31;5059155;28;1236;-35
2022/10/13 02:15:38;;;;;;;;;;;;;;;26.32;33.12;101524.78;5040879;28;1976;-36
2022/10/13 02:18:04;;;;;;;;;;;;;;;26.24;33.31;101523.72;5059029;28;1171;-36
2022/10/13 02:20:29;;;;;;;;;;;;;;;26.31;33.23;101521.22;5074790;28;1203;-36
2022/10/13 02:22:56;;;;;;;;;;;;;;;26.27;33.21;101523.44;5070373;28;1221;-36
2022/10/13 02:25:21;;;;;;;;;;;;;;;26.28;32.91;101522.41;5058514;28;1151;-36
2022/10/13 02:27:46;;;;;;;;;;;;;;;26.25;33.36;101521.88;5041213;28;1172;-36
2022/10/13 02:30:18;;;;;;;;;;;;;;;26.37;33.06;101530.59;5058844;28;1330;-36
2022/10/13 02:32:44;;;;;;;;;;;;;;;26.35;32.97;101530.75;5058067;28;1164;-35
2022/10/13 02:35:09;;;;;;;;;;;;;;;26.29;33.23;101534.06;5058850;28;1198;-36
2022/10/13 02:37:34;;;;;;;;;;;;;;;26.31;33.47;101533.91;5072611;28;1938;-36
2022/10/13 02:40:00;;;;;;;;;;;;;;;26.24;33.45;101530.97;5058770;28;1223;-36
2022/10/13 02:42:25;;;;;;;;;;;;;;;26.21;33.38;101534.81;5058422;28;1160;-34
2022/10/13 02:44:51;;;;;;;;;;;;;;;26.21;33.54;101532.13;5058119;28;1461;-35
2022/10/13 02:47:16;;;;;;;;;;;;;;;26.21;33.52;101532.13;5058520;28;1191;-35
2022/10/13 02:49:41;;;;;;;;;;;;;;;26.17;33.56;101534.28;5059050;28;1104;-36
2022/10/13 02:52:06;;;;;;;;;;;;;;;26.25;33.40;101535.34;5058309;28;1151;-36
2022/10/13 02:54:32;;;;;;;;;;;;;;;26.24;33.53;101526.41;5058048;28;1203;-36
2022/10/13 02:56:57;;;;;;;;;;;;;;;26.22;33.61;101533.84;5075781;28;1971;-36
2022/10/13 02:59:22;;;;;;;;;;;;;;;26.29;33.30;101537.56;5067484;28;1111;-36
2022/10/13 03:01:47;;;;;;;;;;;;;;;26.17;33.31;101536.97;5061915;28;1401;-35
2022/10/13 03:04:13;;;;;;;;;;;;;;;26.19;33.20;101542.25;5077342;28;1158;-33
2022/10/13 03:06:38;;;;;;;;;;;;;;;26.28;33.87;101548.53;5065705;28;1131;-36
2022/10/13 03:09:03;;;;;;;;;;;;;;;25.68;31.10;101550.91;5057718;28;1250;-33
2022/10/13 03:11:29;;;;;;;;;;;;;;;25.15;31.37;101551.50;5066554;28;1109;-33
2022/10/13 03:13:55;;;;;;;;;;;;;;;25.03;31.79;101542.78;5077617;28;1929;-33
2022/10/13 03:16:20;;;;;;;;;;;;;;;24.76;31.33;101543.56;5061977;28;1973;-37
2022/10/13 03:18:45;;;;;;;;;;;;;;;24.48;31.64;101548.88;5057354;28;1192;-37
2022/10/13 03:21:11;;;;;;;;;;;;;;;24.39;31.76;101546.09;5057657;28;862;-38
2022/10/13 03:23:36;;;;;;;;;;;;;;;24.39;31.68;101543.41;5057563;28;1191;-37
2022/10/13 03:26:01;;;;;;;;;;;;;;;24.32;31.79;101542.28;5057404;28;1218;-39
2022/10/13 03:28:27;;;;;;;;;;;;;;;24.36;31.90;101538.31;5057509;28;1101;-37
2022/10/13 03:31:02;;;;;;;;;;;;;;;23.75;31.96;101441.78;5057510;28;1100;-38
2022/10/13 03:33:27;;;;;;;;;;;;;;;24.13;32.06;101522.47;5072821;28;1072;-37
2022/10/13 03:35:53;;;;;;;;;;;;;;;23.99;32.15;101522.94;5056813;28;1898;-36
2022/10/13 03:38:18;;;;;;;;;;;;;;;24.08;32.16;101522.91;5057219;28;1179;-37
2022/10/13 03:40:43;;;;;;;;;;;;;;;24.11;32.11;101518.25;5057199;28;1112;-38
2022/10/13 03:43:09;;;;;;;;;;;;;;;24.00;32.07;101514.72;5070979;28;1923;-39
2022/10/13 03:45:34;;;;;;;;;;;;;;;23.96;32.12;101508.78;5075814;28;1040;-41
2022/10/13 03:47:59;;;;;;;;;;;;;;;24.42;31.78;101507.31;5056989;28;1084;-41
2022/10/13 03:50:25;;;;;;;;;;;;;;;24.81;31.15;101506.28;5057050;28;1127;-39
2022/10/13 03:52:50;;;;;;;;;;;;;;;24.88;30.79;101503.84;5057143;28;1226;-42
2022/10/13 03:55:15;;;;;;;;;;;;;;;24.75;31.23;101497.00;5056549;28;1092;-39
2022/10/13 03:57:41;;;;;;;;;;;;;;;24.87;30.90;101499.50;5056792;28;1977;-43
2022/10/13 04:00:09;;;;;;;;;;;;;;;24.91;31.02;101503.59;5056559;28;1171;-39
2022/10/13 04:02:34;;;;;;;;;;;;;;;24.85;30.99;101499.63;5055864;28;1203;-39
2022/10/13 04:05:00;;;;;;;;;;;;;;;24.81;31.10;101499.09;5056310;28;1175;-37
2022/10/13 04:07:25;;;;;;;;;;;;;;;24.75;31.33;101493.44;5056648;28;1204;-38
2022/10/13 04:09:51;;;;;;;;;;;;;;;24.76;31.06;101493.28;5056326;28;1123;-39
2022/10/13 04:12:16;;;;;;;;;;;;;;;24.81;31.29;101498.22;5056586;28;1183;-40
2022/10/13 04:14:41;;;;;;;;;;;;;;;24.78;31.11;101496.69;5071660;28;1873;-41
2022/10/13 04:17:07;;;;;;;;;;;;;;;24.79;31.28;101489.47;5076067;28;1910;-41
2022/10/13 04:19:32;;;;;;;;;;;;;;;24.79;31.23;101492.16;5061330;28;1127;-40
2022/10/13 04:21:57;;;;;;;;;;;;;;;24.83;31.22;101488.16;5057023;28;1194;-40
2022/10/13 04:24:22;;;;;;;;;;;;;;;24.88;31.06;101495.78;5056480;28;1156;-41
2022/10/13 04:26:48;;;;;;;;;;;;;;;25.01;30.81;101490.06;5061374;28;1179;-39
2022/10/13 04:29:13;;;;;;;;;;;;;;;25.26;30.89;101490.34;5056375;28;1234;-41
2022/10/13 04:31:38;;;;;;;;;;;;;;;25.41;30.65;101496.06;5055886;28;1124;-41
2022/10/13 04:34:04;;;;;;;;;;;;;;;25.38;30.99;101504.44;5060969;28;1125;-38
2022/10/13 04:36:29;;;;;;;;;;;;;;;25.47;30.65;101502.69;5055972;28;1961;-39
2022/10/13 04:38:54;;;;;;;;;;;;;;;25.49;30.89;101498.00;5056088;28;1100;-41
2022/10/13 04:41:20;;;;;;;;;;;;;;;25.49;31.24;101498.81;5070685;28;1100;-41
2022/10/13 04:43:48;;;;;;;;;;;;;;;25.54;30.92;101503.78;5060324;28;1856;-41
2022/10/13 04:46:14;;;;;;;;;;;;;;;25.56;31.27;101505.31;5060814;28;1064;-42
2022/10/13 04:48:40;;;;;;;;;;;;;;;25.56;31.61;101505.31;5063358;28;1135;-40
2022/10/13 04:51:09;;;;;;;;;;;;;;;25.62;31.32;101508.38;5056063;28;1345;-40
2022/10/13 04:53:35;;;;;;;;;;;;;;;25.62;31.56;101509.25;5056067;28;1273;-41
2022/10/13 04:56:01;;;;;;;;;;;;;;;25.64;31.43;101509.94;5055779;28;1969;-41
2022/10/13 04:58:27;;;;;;;;;;;;;;;25.70;31.72;101507.63;5055506;28;1096;-41
2022/10/13 05:00:52;;;;;;;;;;;;;;;25.72;31.59;101503.81;5056350;28;1144;-41
2022/10/13 05:03:17;;;;;;;;;;;;;;;25.76;31.92;101512.41;5056102;28;1084;-40
2022/10/13 05:05:43;;;;;;;;;;;;;;;25.76;32.11;101513.25;5056089;28;1092;-39
2022/10/13 05:08:08;;;;;;;;;;;;;;;25.82;32.18;101522.56;5055884;28;1127;-39
2022/10/13 05:10:34;;;;;;;;;;;;;;;25.85;32.57;101527.66;5055784;28;1359;-41
2022/10/13 05:12:59;;;;;;;;;;;;;;;25.92;32.10;101530.56;5055298;28;2272;-39
2022/10/13 05:15:24;;;;;;;;;;;;;;;25.95;32.53;101524.00;5055714;28;1199;-42
2022/10/13 05:17:49;;;;;;;;;;;;;;;25.96;32.86;101528.41;5055604;28;1914;-38
2022/10/13 05:20:16;;;;;;;;;;;;;;;25.99;32.51;101530.81;5055225;28;1239;-39
2022/10/13 05:22:41;;;;;;;;;;;;;;;26.01;32.83;101531.47;5056113;28;1135;-39
2022/10/13 05:25:07;;;;;;;;;;;;;;;26.02;32.59;101528.63;5060896;28;1132;-39
2022/10/13 05:27:32;;;;;;;;;;;;;;;26.10;32.28;101533.25;5075619;28;1131;-41
2022/10/13 05:29:58;;;;;;;;;;;;;;;26.13;32.69;101530.22;5056558;28;1251;-39
2022/10/13 05:32:23;;;;;;;;;;;;;;;26.14;32.45;101531.91;5056755;28;1215;-37
2022/10/13 05:34:49;;;;;;;;;;;;;;;26.13;32.68;101534.75;5056489;28;1195;-38
2022/10/13 05:37:15;;;;;;;;;;;;;;;26.11;32.60;101537.63;5055459;28;1898;-40
2022/10/13 05:39:41;;;;;;;;;;;;;;;26.14;32.47;101531.09;5063284;28;1234;-39
2022/10/13 05:42:06;;;;;;;;;;;;;;;26.16;32.69;101534.44;5057440;28;1222;-40
2022/10/13 05:44:32;;;;;;;;;;;;;;;26.15;32.68;101541.72;5054932;28;1882;-39
2022/10/13 05:46:57;;;;;;;;;;;;;;;26.20;32.65;101541.22;5060075;28;1104;-39
2022/10/13 05:49:22;;;;;;;;;;;;;;;26.30;32.62;101541.13;5055605;28;1129;-42
2022/10/13 05:51:49;;;;;;;;;;;;;;;26.37;32.40;101535.97;5055612;28;1084;-43
2022/10/13 05:54:23;;;;;;;;;;;;;;;26.37;32.10;101544.06;5037523;28;1183;-44
2022/10/13 05:57:06;;;;;;;;;;;;;;;26.40;32.63;101547.31;5042076;28;1894;-43
2022/10/13 05:59:33;;;;;;;;;;;;;;;26.44;32.56;101545.16;5059992;28;1167;-44
2022/10/13 06:01:58;;;;;;;;;;;;;;;26.51;32.53;101553.41;5059468;28;1195;-41
2022/10/13 06:04:24;;;;;;;;;;;;;;;26.56;32.76;101544.88;5052825;28;1158;-44
2022/10/13 06:06:50;;;;;;;;;;;;;;;26.63;32.01;101554.00;5040528;28;1215;-44
2022/10/13 06:09:15;;;;;;;;;;;;;;;26.55;32.43;101551.25;5048794;28;1227;-44
2022/10/13 06:11:40;;;;;;;;;;;;;;;26.62;32.10;101546.91;5067997;28;1157;-43
2022/10/13 06:14:05;;;;;;;;;;;;;;;26.69;32.26;101549.81;5044115;28;1941;-42
2022/10/13 06:16:31;;;;;;;;;;;;;;;26.68;32.26;101548.09;5057867;28;1961;-43
2022/10/13 06:18:56;;;;;;;;;;;;;;;26.78;32.22;101543.44;5040873;28;1349;-44
2022/10/13 06:21:21;;;;;;;;;;;;;;;26.76;32.28;101542.75;5058825;28;856;-44
2022/10/13 06:23:47;;;;;;;;;;;;;;;26.71;32.48;101542.41;5059098;28;1163;-44
2022/10/13 06:26:12;;;;;;;;;;;;;;;26.78;32.27;101543.44;5058818;28;1163;-44
2022/10/13 06:28:37;;;;;;;;;;;;;;;26.76;32.00;101540.91;5058794;28;1413;-44
2022/10/13 06:31:06;;;;;;;;;;;;;;;26.82;32.06;101534.03;5063825;28;1220;-43
2022/10/13 06:33:31;;;;;;;;;;;;;;;26.87;31.81;101539.78;5060788;28;1274;-44
2022/10/13 06:36:00;;;;;;;;;;;;;;;26.86;31.83;101539.97;5058248;28;1897;-42
2022/10/13 06:38:25;;;;;;;;;;;;;;;26.94;32.09;101533.75;5057820;28;1200;-43
2022/10/13 06:40:50;;;;;;;;;;;;;;;26.99;32.02;101537.63;5070653;28;1227;-43
2022/10/13 06:43:15;;;;;;;;;;;;;;;26.98;31.65;101532.38;5063975;28;1855;-44
2022/10/13 06:45:41;;;;;;;;;;;;;;;27.06;31.59;101537.03;5069620;28;1111;-42
2022/10/13 06:48:06;;;;;;;;;;;;;;;27.07;31.70;101538.72;5062529;28;1131;-43
2022/10/13 06:50:31;;;;;;;;;;;;;;;27.12;31.62;101545.31;5058112;28;1136;-42
2022/10/13 06:52:57;;;;;;;;;;;;;;;27.12;31.99;101539.91;5058084;28;1139;-44
2022/10/13 06:55:22;;;;;;;;;;;;;;;27.13;31.80;101552.41;5058489;28;1203;-43
2022/10/13 06:57:47;;;;;;;;;;;;;;;27.11;31.88;101542.78;5066738;28;1910;-44
2022/10/13 07:00:13;;;;;;;;;;;;;;;27.05;32.04;101543.41;5064127;28;1135;-43
2022/10/13 07:02:38;;;;;;;;;;;;;;;27.14;32.13;101547.84;5071680;28;1155;-43
2022/10/13 07:05:04;;;;;;;;;;;;;;;27.17;31.92;101549.38;5057925;28;1302;-43
2022/10/13 07:07:29;;;;;;;;;;;;;;;27.18;31.96;101554.59;5058028;28;1136;-44
2022/10/13 07:09:54;;;;;;;;;;;;;;;27.15;31.96;101549.53;5056938;28;1155;-44
2022/10/13 07:12:20;;;;;;;;;;;;;;;27.19;31.92;101550.06;5057974;28;1199;-43
2022/10/13 07:14:46;;;;;;;;;;;;;;;27.25;31.87;101546.69;5056506;28;1866;-43
2022/10/13 07:17:11;;;;;;;;;;;;;;;27.21;32.12;101540.78;5057644;28;1910;-43
2022/10/13 07:19:36;;;;;;;;;;;;;;;27.18;31.84;101541.09;5058054;28;1089;-44
2022/10/13 07:22:02;;;;;;;;;;;;;;;27.16;32.22;101535.00;5057946;28;1072;-44
2022/10/13 07:24:27;;;;;;;;;;;;;;;27.21;31.95;101537.25;5057561;28;1147;-44
2022/10/13 07:26:52;;;;;;;;;;;;;;;27.32;31.80;101534.22;5057315;28;1218;-42
2022/10/13 07:29:18;;;;;;;;;;;;;;;27.57;31.78;101530.72;5057236;28;1112;-44
2022/10/13 07:31:43;;;;;;;;;;;;;;;27.51;31.67;101533.06;5057471;28;1231;-42
2022/10/13 07:34:08;;;;;;;;;;;;;;;27.59;31.56;101526.00;5057220;28;1187;-43
2022/10/13 07:36:34;;;;;;;;;;;;;;;27.61;31.51;101519.41;5057050;28;1905;-42
2022/10/13 07:39:00;;;;;;;;;;;;;;;27.63;31.60;101521.94;5057876;28;1223;-43
2022/10/13 07:41:25;;;;;;;;;;;;;;;27.65;31.30;101528.03;5073491;28;1175;-43
2022/10/13 07:43:54;;;;;;;;;;;;;;;27.68;31.63;101529.53;5062906;28;1789;-44
2022/10/13 07:46:20;;;;;;;;;;;;;;;27.70;31.47;101528.41;5063977;28;1207;-44
2022/10/13 07:48:45;;;;;;;;;;;;;;;27.83;31.34;101525.19;5057004;28;1274;-43
2022/10/13 07:51:11;;;;;;;;;;;;;;;27.84;31.26;101523.34;5056454;28;1278;-42
2022/10/13 07:53:36;;;;;;;;;;;;;;;27.90;31.36;101517.25;5056821;28;1325;-43
2022/10/13 07:56:02;;;;;;;;;;;;;;;28.02;31.07;101519.59;5056664;28;1991;-44
2022/10/13 07:58:28;;;;;;;;;;;;;;;28.06;30.81;101520.97;5056118;28;1155;-44
2022/10/13 08:00:56;;;;;;;;;;;;;;;28.20;30.56;101519.41;5055821;28;1204;-44
2022/10/13 08:03:22;;;;;;;;;;;;;;;28.13;30.96;101518.41;5057073;28;1136;-44
2022/10/13 08:05:47;;;;;;;;;;;;;;;28.19;30.90;101521.28;5056929;28;1175;-43
2022/10/13 08:08:12;;;;;;;;;;;;;;;28.19;30.77;101515.03;5056997;28;1270;-44
2022/10/13 08:10:37;;;;;;;;;;;;;;;28.27;30.94;101511.44;5056420;28;1139;-44
2022/10/13 08:13:03;;;;;;;;;;;;;;;28.22;30.84;101510.13;5058474;28;1955;-44
2022/10/13 08:15:28;;;;;;;;;;;;;;;28.31;30.76;101515.50;5059861;28;1119;-45
2022/10/13 08:17:53;;;;;;;;;;;;;;;28.30;30.83;101511.94;5056380;28;1890;-43
2022/10/13 08:20:19;;;;;;;;;;;;;;;28.51;30.45;101525.97;5056363;28;1187;-44
2022/10/13 08:22:44;;;;;;;;;;;;;;;28.44;30.40;101515.84;5056660;28;943;-43
2022/10/13 08:25:09;;;;;;;;;;;;;;;28.51;30.39;101524.09;5056326;28;1251;-44
2022/10/13 08:27:35;;;;;;;;;;;;;;;27.66;27.48;101520.78;5055920;28;1230;-45
2022/10/13 08:30:01;;;;;;;;;;;;;;;27.98;26.95;101519.94;5038177;28;1335;-43
2022/10/13 08:32:26;;;;;;;;;;;;;;;27.84;27.11;101513.34;5056000;28;1186;-43
2022/10/13 08:34:51;;;;;;;;;;;;;;;27.89;28.06;101522.81;5055879;28;913;-43
2022/10/13 08:37:17;;;;;;;;;;;;;;;27.74;27.24;101497.28;5056207;28;1909;-43
2022/10/13 08:39:42;;;;;;;;;;;;;;;27.72;26.76;101510.16;5057805;28;1152;-42
2022/10/13 08:42:17;;;;;;;;;;;;;;;27.75;25.08;101517.06;5055193;28;1092;-43
2022/10/13 08:45:03;;;;;;;;;;;;;;;28.08;24.99;101514.34;5040430;28;1813;-44
2022/10/13 08:47:33;;;;;;;;;;;;;;;28.39;26.17;101506.56;5057734;28;1055;-43
2022/10/13 08:49:59;;;;;;;;;;;;;;;28.34;26.89;101520.59;5062921;28;1124;-44
2022/10/13 08:52:25;;;;;;;;;;;;;;;28.45;26.84;101519.38;5038014;28;1255;-44
2022/10/13 08:54:51;;;;;;;;;;;;;;;28.30;26.96;101520.06;5055799;28;1325;-44
2022/10/13 08:57:16;;;;;;;;;;;;;;;28.21;26.29;101513.00;5037582;28;1914;-43
2022/10/13 08:59:41;;;;;;;;;;;;;;;28.07;24.88;101501.84;5039946;28;1215;-43
2022/10/13 09:02:14;;;;;;;;;;;;;;;28.28;25.22;101505.84;5056213;28;1270;-44
2022/10/13 09:04:40;;;;;;;;;;;;;;;28.45;25.91;101522.09;5055825;28;1174;-43
2022/10/13 09:07:09;;;;;;;;;;;;;;;28.42;25.38;101523.28;5056185;28;1262;-41
2022/10/13 09:09:35;;;;;;;;;;;;;;;28.32;25.39;101509.94;5038506;28;1204;-42
2022/10/13 09:12:01;;;;;;;;;;;;;;;28.21;24.85;101511.13;5055343;28;1233;-43
2022/10/13 09:14:30;;;;;;;;;;;;;;;28.42;24.96;101526.00;5055917;28;2192;-41
2022/10/13 09:16:56;;;;;;;;;;;;;;;28.16;24.98;101518.91;5058622;28;1910;-42
2022/10/13 09:19:28;;;;;;;;;;;;;;;28.09;24.65;101507.91;5056005;28;1113;-42
2022/10/13 09:21:57;;;;;;;;;;;;;;;28.20;25.05;101512.13;5055984;28;1167;-41
2022/10/13 09:24:24;;;;;;;;;;;;;;;28.35;24.34;101520.44;5055510;28;1129;-42
2022/10/13 09:26:51;;;;;;;;;;;;;;;28.32;23.84;101517.19;5055751;28;1281;-42
2022/10/13 09:29:16;;;;;;;;;;;;;;;28.43;24.65;101518.69;5068986;28;1068;-42
2022/10/13 09:31:42;;;;;;;;;;;;;;;27.97;24.42;101517.41;5075889;28;1155;-42
2022/10/13 09:34:15;;;;;;;;;;;;;;;27.74;24.06;101526.22;5058550;28;1163;-42
2022/10/13 09:36:56;;;;;;;;;;;;;;;27.32;24.41;101525.28;5059421;28;1902;-42
2022/10/13 09:39:21;;;;;;;;;;;;;;;27.24;24.72;101520.69;5059410;28;1148;-42
2022/10/13 09:41:47;;;;;;;;;;;;;;;27.05;24.62;101519.97;5059628;28;1116;-42
2022/10/13 09:44:16;;;;;;;;;;;;;;;27.10;24.66;101523.03;5059713;28;1977;-42
2022/10/13 09:46:46;;;;;;;;;;;;;;;27.67;24.05;101509.78;5050398;28;1196;-42
2022/10/13 09:49:33;;;;;;;;;;;;;;;28.48;24.71;101517.16;5042824;28;1143;-41
2022/10/13 09:52:05;;;;;;;;;;;;;;;28.70;25.15;101506.63;5042459;28;1076;-41
2022/10/13 09:54:33;;;;;;;;;;;;;;;28.89;25.25;101509.91;5059303;28;1512;-42
2022/10/13 09:57:00;;;;;;;;;;;;;;;28.72;25.73;101501.03;5058833;28;1926;-41
2022/10/13 09:59:29;;;;;;;;;;;;;;;28.64;26.18;101501.91;5059060;28;1104;-41
2022/10/13 10:01:55;;;;;;;;;;;;;;;28.61;26.28;101499.56;5058939;28;1104;-42
2022/10/13 10:04:25;;;;;;;;;;;;;;;28.82;26.22;101504.38;5058279;28;1141;-41
2022/10/13 10:06:50;;;;;;;;;;;;;;;28.90;26.26;101497.19;5048011;28;1425;-41
2022/10/13 10:09:34;;;;;;;;;;;;;;;29.03;26.27;101499.41;5059008;28;1179;-42
2022/10/13 10:11:59;;;;;;;;;;;;;;;29.03;26.53;101502.09;5060962;28;1033;-41
2022/10/13 10:14:25;;;;;;;;;;;;;;;29.21;26.25;101491.81;5051918;28;1877;-41
2022/10/13 10:16:57;;;;;;;;;;;;;;;29.26;26.30;101488.56;5058308;28;1906;-41
2022/10/13 10:19:27;;;;;;;;;;;;;;;29.36;26.22;101490.19;5058053;28;1113;-42
2022/10/13 10:22:05;;;;;;;;;;;;;;;29.31;26.31;101485.31;5040627;28;1216;-42
2022/10/13 10:24:36;;;;;;;;;;;;;;;29.14;26.65;101485.44;5045575;28;1192;-42
2022/10/13 10:27:22;;;;;;;;;;;;;;;29.26;26.70;101482.31;5048891;28;1200;-41
2022/10/13 10:29:48;;;;;;;;;;;;;;;29.60;26.54;101477.50;5040718;28;1081;-44
2022/10/13 10:32:16;;;;;;;;;;;;;;;29.97;25.75;101477.66;5040776;28;1227;-42
2022/10/13 10:34:48;;;;;;;;;;;;;;;30.15;25.23;101480.88;5058147;28;1305;-42
2022/10/13 10:37:16;;;;;;;;;;;;;;;30.18;25.18;101471.50;5059860;28;1933;-44
2022/10/13 10:40:00;;;;;;;;;;;;;;;30.26;25.17;101476.06;5057903;28;1247;-44
2022/10/13 10:42:32;;;;;;;;;;;;;;;30.38;25.08;101473.72;5078350;28;1218;-44
2022/10/13 10:44:57;;;;;;;;;;;;;;;30.42;25.12;101467.72;5053032;28;2146;-44
2022/10/13 10:47:26;;;;;;;;;;;;;;;30.36;25.13;101475.78;5041941;28;1172;-44
2022/10/13 10:49:53;;;;;;;;;;;;;;;30.41;25.28;101470.63;5040900;28;1116;-42
2022/10/13 10:52:21;;;;;;;;;;;;;;;29.57;26.37;101468.69;5040376;28;1212;-44
2022/10/13 10:54:48;;;;;;;;;;;;;;;28.90;26.58;101467.41;5058112;28;1123;-42
2022/10/13 10:57:14;;;;;;;;;;;;;;;28.98;26.64;101458.44;5040277;28;1969;-41
2022/10/13 10:59:39;;;;;;;;;;;;;;;29.09;26.81;101453.44;5057960;28;837;-42
2022/10/13 11:02:07;;;;;;;;;;;;;;;28.69;26.94;101456.22;5058148;28;1037;-42
2022/10/13 11:04:35;;;;;;;;;;;;;;;28.32;27.08;101452.25;5057947;28;1163;-42
2022/10/13 11:07:01;;;;;;;;;;;;;;;28.64;25.74;101452.31;5057788;28;1108;-42
2022/10/13 11:09:42;;;;;;;;;;;;;;;28.22;26.04;101447.91;5058075;28;1092;-42
2022/10/13 11:12:29;;;;;;;;;;;;;;;27.83;26.40;101448.63;5057392;28;1184;-42
2022/10/13 11:15:23;;;;;;;;;;;;;;;27.68;26.53;101435.81;5035025;28;2109;-40
2022/10/13 11:17:49;;;;;;;;;;;;;;;27.75;26.26;101436.81;5044001;28;1910;-42
2022/10/13 11:20:20;;;;;;;;;;;;;;;27.67;26.51;101430.53;5040043;28;1192;-41
2022/10/13 11:22:58;;;;;;;;;;;;;;;27.72;26.67;101436.31;5057149;28;1077;-41
2022/10/13 11:25:35;;;;;;;;;;;;;;;28.07;26.04;101433.38;5057704;28;1195;-42
2022/10/13 11:28:06;;;;;;;;;;;;;;;27.06;26.72;101429.84;5057679;28;1152;-42
2022/10/13 11:30:39;;;;;;;;;;;;;;;24.73;31.34;101423.66;5039982;28;1616;-41
2022/10/13 11:33:25;;;;;;;;;;;;;;;23.57;33.86;101415.63;5057312;28;1128;-42
2022/10/13 11:35:50;;;;;;;;;;;;;;;23.00;35.30;101419.81;5056988;28;1898;-42
2022/10/13 11:38:20;;;;;;;;;;;;;;;22.81;35.85;101422.47;5039364;28;1263;-39
2022/10/13 11:40:59;;;;;;;;;;;;;;;23.93;33.89;101411.47;5068029;28;1147;-40
2022/10/13 11:43:33;;;;;;;;;;;;;;;25.96;28.13;101405.25;5058973;28;1972;-41
2022/10/13 11:46:01;;;;;;;;;;;;;;;23.45;34.09;101404.22;5061010;28;1061;-42
2022/10/13 11:48:32;;;;;;;;;;;;;;;23.88;33.47;101406.53;5046792;28;873;-41
2022/10/13 11:51:04;;;;;;;;;;;;;;;25.54;28.14;101401.41;5057385;28;1133;-41
2022/10/13 11:53:33;;;;;;;;;;;;;;;23.55;33.84;101409.56;5039043;28;1093;-40
2022/10/13 11:56:02;;;;;;;;;;;;;;;23.72;33.74;101404.47;5038579;28;1968;-41
2022/10/13 11:58:28;;;;;;;;;;;;;;;25.45;28.67;101397.78;5056974;28;1132;-41
2022/10/13 12:01:09;;;;;;;;;;;;;;;23.51;33.96;101400.09;5056702;28;893;-41
2022/10/13 12:03:36;;;;;;;;;;;;;;;24.45;32.33;101394.06;5039178;28;1109;-40
2022/10/13 12:06:25;;;;;;;;;;;;;;;25.13;30.22;101385.72;5056136;28;1246;-41
2022/10/13 12:08:50;;;;;;;;;;;;;;;23.14;34.86;101390.88;5051306;28;1717;-39
2022/10/13 12:11:22;;;;;;;;;;;;;;;25.13;31.06;101388.41;5056594;28;1088;-39
2022/10/13 12:13:47;;;;;;;;;;;;;;;24.50;31.81;101397.16;5046835;28;1822;-42
2022/10/13 12:16:12;;;;;;;;;;;;;;;24.37;32.06;101381.38;5061214;28;1965;-40
2022/10/13 12:18:38;;;;;;;;;;;;;;;26.25;28.67;101385.19;5063362;28;1182;-39
2022/10/13 12:21:24;;;;;;;;;;;;;;;24.74;31.33;101384.16;5076903;28;1080;-40
2022/10/13 12:23:49;;;;;;;;;;;;;;;22.86;34.60;101377.28;5070766;28;1623;-40
2022/10/13 12:26:15;;;;;;;;;;;;;;;24.77;31.63;101373.06;5056515;28;1077;-40
2022/10/13 12:28:43;;;;;;;;;;;;;;;26.13;29.19;101375.69;5059131;28;1065;-41
2022/10/13 12:31:14;;;;;;;;;;;;;;;23.79;32.82;101381.38;5056324;28;1156;-41
2022/10/13 12:33:39;;;;;;;;;;;;;;;24.47;32.07;101384.00;5038971;28;1239;-40
2022/10/13 12:36:11;;;;;;;;;;;;;;;25.23;29.22;101361.41;5055275;28;1894;-39
2022/10/13 12:38:37;;;;;;;;;;;;;;;23.39;34.29;101375.19;5055777;28;1136;-40
2022/10/13 12:41:02;;;;;;;;;;;;;;;25.34;30.49;101366.53;5051891;28;1184;-40
2022/10/13 12:43:27;;;;;;;;;;;;;;;24.31;32.10;101360.44;5043889;28;1801;-42
2022/10/13 12:45:53;;;;;;;;;;;;;;;25.27;30.51;101363.66;5053893;28;990;-41
2022/10/13 12:48:31;;;;;;;;;;;;;;;26.35;28.49;101357.25;5040108;28;1078;-42
2022/10/13 12:51:26;;;;;;;;;;;;;;;27.01;27.27;101352.03;5058567;28;1088;-42